Impacts METAR Board
IDs:

KDFW - Dallas-Ft Worth Intl, TX, US

Updated at: 1200 UTC 27 Feb 2021
Potential Impact None Slight Moderate High
Time 27/00Z 27/01Z 27/02Z 27/03Z 27/04Z 27/05Z 27/06Z 27/07Z 27/08Z 27/09Z 27/10Z 27/11Z 27/12Z
Temp57 57 54 52 52 52 52 52 52 51 51 53 53
Dewpt49 49 48 48 49 49 50 50 50 50 50 51 52
Altim29.87 29.88 29.91 29.91 29.93 29.93 29.91 29.91 29.93 29.90 29.89 29.90 29.91
VIS10 10 10 10 10 10 9 8 7 5 5 8 2.5
CIG25 22 210 210 190 190 170 170 180 200 220 19 6
CoverBKNBKNBKNBKNOVCOVCOVCOVCOVCOVCOVCOVCOVC
FltCatMVFRMVFRVFRVFRVFRVFRVFRVFRVFRMVFRMVFRMVFRIFR
WX------------------BRBR---DZ BR
WDir19020001101600150140230130130130120
WSpd6 4 0 3 6 0 5 3 3 4 5 6 7
WGst-- -- -- -- -- -- -- -- -- -- -- -- --
Raw hourly METARs
KDFW 262353Z 19006KT 10SM BKN025 BKN150 14/09 A2987 RMK AO2 SLP113 T01390094 10139 20111 56005
KDFW 270053Z 20004KT 10SM BKN022 BKN150 14/09 A2988 RMK AO2 SLP117 T01390094
KDFW 270153Z 00000KT 10SM SCT020 BKN210 BKN250 12/09 A2991 RMK AO2 SLP128 T01220089
KDFW 270253Z 11003KT 10SM FEW020 BKN210 BKN250 11/09 A2991 RMK AO2 SLP127 T01110089 50013
KDFW 270353Z 16006KT 10SM FEW020 BKN190 OVC250 11/09 A2993 RMK AO2 SLP134 T01110094
KDFW 270453Z 00000KT 10SM FEW020 BKN190 OVC250 11/09 A2993 RMK AO2 SLP135 T01110094
KDFW 270553Z 15005KT 9SM FEW020 BKN170 OVC250 11/10 A2991 RMK AO2 SLP126 T01110100 10139 20106 401390078 50001
KDFW 270653Z 14003KT 8SM FEW020 BKN170 OVC230 11/10 A2991 RMK AO2 SLP126 T01110100
KDFW 270753Z 23003KT 7SM FEW020 BKN180 OVC220 11/10 A2993 RMK AO2 SLP132 T01110100
KDFW 270853Z 13004KT 5SM BR BKN200 OVC230 11/10 A2990 RMK AO2 SLP123 T01060100 58003
KDFW 270953Z 13005KT 5SM BR FEW020 BKN220 OVC250 11/10 A2989 RMK AO2 SLP120 T01060100
KDFW 271053Z 13006KT 8SM OVC019 12/11 A2990 RMK AO2 SLP123 T01170106
KDFW 271153Z 12007KT 2 1/2SM -DZ BR OVC006 12/11 A2991 RMK AO2 SFC VIS 3 DZB45 SLP125 P0000 60000 70001 T01170111 10117 20100 53002



Page loaded:  12:58 UTC  |   04:58 AM Pacific  |   05:58 AM Mountain  |   06:58 AM Central  |   07:58 AM Eastern

 

ADVISORIES

FORECASTS

FORECASTS

OBSERVATIONS

USER TOOLS

ABOUT US